sensor_id;sensor_type;location;lat;lon;timestamp;pressure;altitude;pressure_sealevel;temperature;humidity
55077;BME280;40971;44.702;11.030;2023-08-01T00:01:30;100677.00;;;22.27;84.93
55077;BME280;40971;44.702;11.030;2023-08-01T00:11:34;100670.97;;;21.92;87.39
55077;BME280;40971;44.702;11.030;2023-08-01T00:21:35;100652.56;;;21.56;89.18
55077;BME280;40971;44.702;11.030;2023-08-01T00:31:39;100639.44;;;21.42;90.13
55077;BME280;40971;44.702;11.030;2023-08-01T00:41:40;100614.91;;;21.45;88.86
55077;BME280;40971;44.702;11.030;2023-08-01T00:51:44;100606.06;;;21.45;88.57
55077;BME280;40971;44.702;11.030;2023-08-01T01:01:46;100604.19;;;21.45;88.22
55077;BME280;40971;44.702;11.030;2023-08-01T01:11:47;100601.66;;;21.27;88.87
55077;BME280;40971;44.702;11.030;2023-08-01T01:21:49;100599.25;;;21.14;89.27
55077;BME280;40971;44.702;11.030;2023-08-01T01:31:52;100587.63;;;21.20;89.36
55077;BME280;40971;44.702;11.030;2023-08-01T01:41:53;100580.44;;;21.09;88.46
55077;BME280;40971;44.702;11.030;2023-08-01T01:51:57;100574.50;;;20.96;89.50
55077;BME280;40971;44.702;11.030;2023-08-01T02:01:59;100569.53;;;20.76;90.93
55077;BME280;40971;44.702;11.030;2023-08-01T02:12:00;100560.69;;;20.64;92.42
55077;BME280;40971;44.702;11.030;2023-08-01T02:22:01;100539.56;;;20.62;90.64
55077;BME280;40971;44.702;11.030;2023-08-01T02:32:03;100526.56;;;20.66;91.71
55077;BME280;40971;44.702;11.030;2023-08-01T02:42:07;100522.50;;;20.52;91.18
55077;BME280;40971;44.702;11.030;2023-08-01T02:52:09;100529.56;;;20.58;91.58
55077;BME280;40971;44.702;11.030;2023-08-01T03:02:12;100558.72;;;20.71;91.17
55077;BME280;40971;44.702;11.030;2023-08-01T03:12:15;100570.19;;;21.06;89.86
55077;BME280;40971;44.702;11.030;2023-08-01T03:22:17;100541.06;;;20.70;89.65
55077;BME280;40971;44.702;11.030;2023-08-01T03:32:21;100525.84;;;20.59;90.60
55077;BME280;40971;44.702;11.030;2023-08-01T03:42:22;100537.69;;;20.40;90.14
55077;BME280;40971;44.702;11.030;2023-08-01T03:52:24;100513.56;;;20.46;91.43
55077;BME280;40971;44.702;11.030;2023-08-01T04:02:27;100495.91;;;20.33;89.93
55077;BME280;40971;44.702;11.030;2023-08-01T04:12:31;100477.50;;;20.02;92.11
55077;BME280;40971;44.702;11.030;2023-08-01T04:22:32;100466.63;;;20.15;92.05
55077;BME280;40971;44.702;11.030;2023-08-01T04:32:35;100478.59;;;20.24;91.26
55077;BME280;40971;44.702;11.030;2023-08-01T04:42:37;100512.16;;;20.55;90.47
55077;BME280;40971;44.702;11.030;2023-08-01T04:52:39;100484.56;;;20.89;89.25
55077;BME280;40971;44.702;11.030;2023-08-01T05:02:41;100471.47;;;20.88;88.99
55077;BME280;40971;44.702;11.030;2023-08-01T05:12:43;100485.69;;;21.17;89.87
55077;BME280;40971;44.702;11.030;2023-08-01T05:22:45;100463.75;;;21.60;88.23
55077;BME280;40971;44.702;11.030;2023-08-01T05:32:47;100458.38;;;22.04;87.15
55077;BME280;40971;44.702;11.030;2023-08-01T05:42:48;100457.00;;;22.02;86.80
55077;BME280;40971;44.702;11.030;2023-08-01T05:52:51;100447.03;;;22.52;86.86
55077;BME280;40971;44.702;11.030;2023-08-01T06:02:52;100453.91;;;23.08;83.15
55077;BME280;40971;44.702;11.030;2023-08-01T06:12:54;100435.75;;;23.69;77.42
55077;BME280;40971;44.702;11.030;2023-08-01T06:22:57;100439.72;;;23.98;76.10
55077;BME280;40971;44.702;11.030;2023-08-01T06:32:59;100435.38;;;24.29;74.66
55077;BME280;40971;44.702;11.030;2023-08-01T06:43:01;100438.50;;;24.58;72.07
55077;BME280;40971;44.702;11.030;2023-08-01T06:53:02;100415.28;;;24.94;70.74
55077;BME280;40971;44.702;11.030;2023-08-01T07:03:07;100409.72;;;25.40;68.63
55077;BME280;40971;44.702;11.030;2023-08-01T07:13:08;100417.03;;;25.80;67.42
55077;BME280;40971;44.702;11.030;2023-08-01T07:23:11;100417.03;;;25.80;67.14
55077;BME280;40971;44.702;11.030;2023-08-01T07:33:15;100421.34;;;25.61;70.56
55077;BME280;40971;44.702;11.030;2023-08-01T07:43:16;100429.66;;;26.10;69.25
55077;BME280;40971;44.702;11.030;2023-08-01T07:53:17;100408.59;;;26.42;70.21
55077;BME280;40971;44.702;11.030;2023-08-01T08:03:21;100409.34;;;27.56;62.47
55077;BME280;40971;44.702;11.030;2023-08-01T08:13:25;100405.25;;;27.25;64.48
55077;BME280;40971;44.702;11.030;2023-08-01T08:23:27;100410.53;;;27.73;63.83
55077;BME280;40971;44.702;11.030;2023-08-01T08:33:32;100407.69;;;28.22;60.89
55077;BME280;40971;44.702;11.030;2023-08-01T08:43:35;100399.44;;;29.36;59.23
55077;BME280;40971;44.702;11.030;2023-08-01T08:53:37;100400.47;;;30.73;54.26
55077;BME280;40971;44.702;11.030;2023-08-01T09:03:41;100384.09;;;30.64;55.38
55077;BME280;40971;44.702;11.030;2023-08-01T09:13:43;100361.66;;;30.72;53.16
55077;BME280;40971;44.702;11.030;2023-08-01T09:23:45;100369.22;;;30.62;56.29
55077;BME280;40971;44.702;11.030;2023-08-01T09:33:47;100365.06;;;32.11;52.34
55077;BME280;40971;44.702;11.030;2023-08-01T09:43:49;100345.91;;;30.61;51.80
55077;BME280;40971;44.702;11.030;2023-08-01T09:53:55;100333.66;;;30.36;54.51
55077;BME280;40971;44.702;11.030;2023-08-01T10:03:58;100322.94;;;30.44;53.68
55077;BME280;40971;44.702;11.030;2023-08-01T10:14:02;100318.38;;;31.47;49.97
55077;BME280;40971;44.702;11.030;2023-08-01T10:24:05;100287.25;;;31.62;49.05
55077;BME280;40971;44.702;11.030;2023-08-01T10:34:13;100276.59;;;30.41;50.20
55077;BME280;40971;44.702;11.030;2023-08-01T10:44:15;100246.78;;;30.85;47.81
55077;BME280;40971;44.702;11.030;2023-08-01T10:54:25;100254.44;;;32.54;45.67
55077;BME280;40971;44.702;11.030;2023-08-01T11:04:27;100268.59;;;31.16;48.09
55077;BME280;40971;44.702;11.030;2023-08-01T11:14:30;100236.09;;;33.15;43.65
55077;BME280;40971;44.702;11.030;2023-08-01T11:24:31;100229.28;;;31.84;45.48
55077;BME280;40971;44.702;11.030;2023-08-01T11:34:41;100218.41;;;33.38;41.37
55077;BME280;40971;44.702;11.030;2023-08-01T11:44:45;100202.38;;;34.66;37.96
55077;BME280;40971;44.702;11.030;2023-08-01T11:54:46;100201.53;;;34.86;34.97
55077;BME280;40971;44.702;11.030;2023-08-01T12:04:48;100189.19;;;35.00;36.87
55077;BME280;40971;44.702;11.030;2023-08-01T12:14:49;100176.03;;;35.27;33.69
55077;BME280;40971;44.702;11.030;2023-08-01T12:24:53;100142.66;;;35.21;34.16
55077;BME280;40971;44.702;11.030;2023-08-01T12:34:54;100155.66;;;35.48;35.19
55077;BME280;40971;44.702;11.030;2023-08-01T12:44:55;100141.44;;;34.86;33.37
55077;BME280;40971;44.702;11.030;2023-08-01T12:54:57;100116.38;;;34.39;35.56
55077;BME280;40971;44.702;11.030;2023-08-01T13:04:58;100087.63;;;35.59;33.98
55077;BME280;40971;44.702;11.030;2023-08-01T13:14:59;100088.94;;;34.35;34.32
55077;BME280;40971;44.702;11.030;2023-08-01T13:25:00;100099.94;;;33.85;34.44
55077;BME280;40971;44.702;11.030;2023-08-01T13:35:04;100096.06;;;32.99;34.25
55077;BME280;40971;44.702;11.030;2023-08-01T13:45:06;100073.53;;;33.27;33.37
55077;BME280;40971;44.702;11.030;2023-08-01T13:55:08;100079.53;;;33.71;32.52
55077;BME280;40971;44.702;11.030;2023-08-01T14:05:11;100067.47;;;34.46;32.25
55077;BME280;40971;44.702;11.030;2023-08-01T14:15:12;100061.00;;;34.50;31.31
55077;BME280;40971;44.702;11.030;2023-08-01T14:25:14;100052.31;;;34.36;30.93
55077;BME280;40971;44.702;11.030;2023-08-01T14:35:15;100039.78;;;32.73;36.12
55077;BME280;40971;44.702;11.030;2023-08-01T14:45:18;100022.72;;;33.23;36.02
55077;BME280;40971;44.702;11.030;2023-08-01T14:55:20;100012.09;;;34.13;34.49
55077;BME280;40971;44.702;11.030;2023-08-01T15:05:24;100021.81;;;34.34;32.27
55077;BME280;40971;44.702;11.030;2023-08-01T15:15:25;100011.91;;;32.76;32.60
55077;BME280;40971;44.702;11.030;2023-08-01T15:25:26;100003.53;;;33.40;31.43
55077;BME280;40971;44.702;11.030;2023-08-01T15:35:30;99986.09;;;33.12;30.90
55077;BME280;40971;44.702;11.030;2023-08-01T15:45:31;99977.59;;;33.34;30.43
55077;BME280;40971;44.702;11.030;2023-08-01T15:55:32;99981.03;;;32.64;29.72
55077;BME280;40971;44.702;11.030;2023-08-01T16:05:33;100001.81;;;32.22;32.60
55077;BME280;40971;44.702;11.030;2023-08-01T16:15:36;99980.91;;;32.60;31.52
55077;BME280;40971;44.702;11.030;2023-08-01T16:25:38;99994.13;;;32.79;31.65
55077;BME280;40971;44.702;11.030;2023-08-01T16:35:39;99995.28;;;32.69;31.58
55077;BME280;40971;44.702;11.030;2023-08-01T16:45:41;99985.91;;;33.17;31.26
55077;BME280;40971;44.702;11.030;2023-08-01T16:55:42;99993.88;;;32.93;32.03
55077;BME280;40971;44.702;11.030;2023-08-01T17:05:43;99991.94;;;31.92;33.38
55077;BME280;40971;44.702;11.030;2023-08-01T17:15:44;99992.44;;;31.85;34.99
55077;BME280;40971;44.702;11.030;2023-08-01T17:25:45;100004.81;;;30.70;38.59
55077;BME280;40971;44.702;11.030;2023-08-01T17:35:46;100008.53;;;30.21;40.60
55077;BME280;40971;44.702;11.030;2023-08-01T17:45:51;100001.84;;;30.27;42.10
55077;BME280;40971;44.702;11.030;2023-08-01T17:55:54;99987.69;;;29.63;43.28
55077;BME280;40971;44.702;11.030;2023-08-01T18:16:07;100000.63;;;29.17;46.70
55077;BME280;40971;44.702;11.030;2023-08-01T18:26:19;100003.97;;;28.41;49.23
55077;BME280;40971;44.702;11.030;2023-08-01T18:36:22;100031.59;;;27.68;53.83
55077;BME280;40971;44.702;11.030;2023-08-01T18:46:26;100024.75;;;27.14;61.33
55077;BME280;40971;44.702;11.030;2023-08-01T18:56:29;100043.44;;;26.25;62.82
55077;BME280;40971;44.702;11.030;2023-08-01T19:06:32;100070.09;;;25.87;61.12
55077;BME280;40971;44.702;11.030;2023-08-01T19:16:34;100076.25;;;25.39;62.92
55077;BME280;40971;44.702;11.030;2023-08-01T19:26:35;100081.78;;;24.94;61.88
55077;BME280;40971;44.702;11.030;2023-08-01T19:36:36;100097.91;;;24.18;68.41
55077;BME280;40971;44.702;11.030;2023-08-01T19:46:38;100133.31;;;23.90;70.37
55077;BME280;40971;44.702;11.030;2023-08-01T19:56:40;100148.31;;;23.86;66.72
55077;BME280;40971;44.702;11.030;2023-08-01T20:06:43;100138.00;;;23.57;66.47
55077;BME280;40971;44.702;11.030;2023-08-01T20:16:46;100147.69;;;23.53;65.42
55077;BME280;40971;44.702;11.030;2023-08-01T20:26:48;100143.69;;;23.14;68.48
55077;BME280;40971;44.702;11.030;2023-08-01T20:36:50;100156.28;;;23.18;68.41
55077;BME280;40971;44.702;11.030;2023-08-01T20:46:52;100159.00;;;22.82;72.90
55077;BME280;40971;44.702;11.030;2023-08-01T20:56:54;100156.59;;;22.80;72.27
55077;BME280;40971;44.702;11.030;2023-08-01T21:06:56;100167.03;;;22.82;73.11
55077;BME280;40971;44.702;11.030;2023-08-01T21:16:57;100189.56;;;22.27;71.78
55077;BME280;40971;44.702;11.030;2023-08-01T21:26:58;100189.44;;;22.17;71.13
55077;BME280;40971;44.702;11.030;2023-08-01T21:37:00;100186.75;;;22.17;71.14
55077;BME280;40971;44.702;11.030;2023-08-01T21:47:06;100206.63;;;21.78;73.71
55077;BME280;40971;44.702;11.030;2023-08-01T21:57:08;100222.56;;;21.29;76.08
55077;BME280;40971;44.702;11.030;2023-08-01T22:07:11;100238.13;;;21.16;75.47
55077;BME280;40971;44.702;11.030;2023-08-01T22:17:12;100233.06;;;21.36;77.13
55077;BME280;40971;44.702;11.030;2023-08-01T22:27:14;100226.81;;;21.30;78.40
55077;BME280;40971;44.702;11.030;2023-08-01T22:37:18;100233.41;;;21.23;79.06
55077;BME280;40971;44.702;11.030;2023-08-01T22:47:20;100251.38;;;21.11;77.76
55077;BME280;40971;44.702;11.030;2023-08-01T22:57:22;100241.69;;;21.21;75.14
55077;BME280;40971;44.702;11.030;2023-08-01T23:07:24;100263.38;;;21.25;77.95
55077;BME280;40971;44.702;11.030;2023-08-01T23:17:32;100275.53;;;21.16;79.83
55077;BME280;40971;44.702;11.030;2023-08-01T23:27:34;100291.91;;;20.91;80.59
55077;BME280;40971;44.702;11.030;2023-08-01T23:37:35;100304.31;;;20.97;81.28
55077;BME280;40971;44.702;11.030;2023-08-01T23:47:37;100339.28;;;20.79;78.84
55077;BME280;40971;44.702;11.030;2023-08-01T23:57:38;100339.28;;;20.39;79.91
